createdAt,value
2023-08-16T00:02:24.162Z,80.24
2023-08-16T00:04:51.259Z,81.24
2023-08-16T00:07:17.926Z,81.47
2023-08-16T00:09:44.709Z,81.45
2023-08-16T00:12:11.732Z,80.98
2023-08-16T00:14:38.400Z,80.10
2023-08-16T00:17:06.098Z,79.98
2023-08-16T00:19:32.736Z,81.27
2023-08-16T00:21:59.434Z,81.09
2023-08-16T00:24:26.124Z,82.20
2023-08-16T00:26:52.745Z,81.80
2023-08-16T00:29:19.679Z,82.79
2023-08-16T00:31:46.348Z,83.29
2023-08-16T00:34:13.008Z,83.11
2023-08-16T00:36:42.214Z,82.97
2023-08-16T00:39:08.839Z,83.49
2023-08-16T00:41:35.622Z,83.09
2023-08-16T00:44:02.276Z,83.17
2023-08-16T00:46:31.611Z,82.53
2023-08-16T00:48:58.582Z,81.41
2023-08-16T00:51:25.503Z,81.05
2023-08-16T00:53:53.953Z,80.32
2023-08-16T00:56:21.407Z,79.61
2023-08-16T00:58:48.153Z,80.18
2023-08-16T01:01:15.473Z,79.76
2023-08-16T01:03:42.252Z,79.13
2023-08-16T01:06:09.323Z,79.07
2023-08-16T01:08:36.157Z,79.34
2023-08-16T01:11:30.878Z,80.03
2023-08-16T01:14:37.719Z,80.05
2023-08-16T01:17:07.162Z,80.41
2023-08-16T01:19:35.062Z,79.46
2023-08-16T01:22:29.583Z,80.00
2023-08-16T01:25:27.008Z,80.74
2023-08-16T01:27:54.884Z,80.68
2023-08-16T01:30:22.289Z,79.86
2023-08-16T01:32:49.771Z,79.66
2023-08-16T01:35:17.837Z,79.29
2023-08-16T01:37:45.096Z,78.69
2023-08-16T01:40:12.577Z,78.49
2023-08-16T01:42:47.814Z,77.90
2023-08-16T01:45:17.941Z,77.78
2023-08-16T01:47:48.558Z,79.05
2023-08-16T01:50:15.744Z,78.76
2023-08-16T01:52:42.811Z,81.04
2023-08-16T01:55:09.690Z,81.57
2023-08-16T01:57:36.333Z,81.78
2023-08-16T02:00:03.391Z,83.89
2023-08-16T02:02:30.228Z,84.16
2023-08-16T02:04:57.297Z,85.61
2023-08-16T02:07:24.871Z,86.58
2023-08-16T02:09:51.753Z,87.89
2023-08-16T02:12:18.860Z,88.05
2023-08-16T02:14:45.518Z,89.30
2023-08-16T02:17:12.220Z,90.18
2023-08-16T02:19:38.935Z,90.17
2023-08-16T02:22:05.952Z,89.91
2023-08-16T02:24:32.663Z,89.37
2023-08-16T02:27:00.341Z,89.20
2023-08-16T02:29:27.036Z,89.33
2023-08-16T02:31:53.731Z,91.32
2023-08-16T02:34:20.417Z,90.53
2023-08-16T02:36:47.094Z,90.48
2023-08-16T02:39:13.721Z,89.92
2023-08-16T02:41:40.432Z,90.09
2023-08-16T02:44:07.254Z,89.78
2023-08-16T02:46:33.941Z,90.31
2023-08-16T02:49:01.210Z,89.84
2023-08-16T02:51:27.845Z,90.49
2023-08-16T02:53:54.508Z,92.03
2023-08-16T02:56:21.226Z,91.89
2023-08-16T02:58:47.895Z,92.07
2023-08-16T03:01:15.956Z,92.20
2023-08-16T03:03:43.423Z,91.87
2023-08-16T03:06:10.101Z,92.34
2023-08-16T03:08:36.985Z,91.15
2023-08-16T03:11:03.734Z,92.20
2023-08-16T03:13:30.438Z,91.95
2023-08-16T03:15:57.212Z,91.86
2023-08-16T03:18:23.924Z,93.81
2023-08-16T03:20:50.782Z,92.74
2023-08-16T03:23:17.492Z,92.67
2023-08-16T03:25:45.493Z,92.47
2023-08-16T03:28:12.358Z,93.08
2023-08-16T03:30:40.215Z,93.17
2023-08-16T03:33:07.661Z,92.28
2023-08-16T03:35:34.525Z,91.55
2023-08-16T03:38:01.225Z,91.90
2023-08-16T03:40:28.008Z,92.67
2023-08-16T03:42:54.674Z,93.20
2023-08-16T03:45:26.475Z,92.68
2023-08-16T03:47:58.351Z,91.78
2023-08-16T03:50:25.004Z,91.73
2023-08-16T03:52:51.855Z,92.59
2023-08-16T03:55:18.500Z,92.49
2023-08-16T03:57:45.152Z,92.30
2023-08-16T04:00:13.262Z,92.13
2023-08-16T04:02:40.837Z,92.90
2023-08-16T04:05:10.460Z,92.45
2023-08-16T04:07:37.276Z,92.75
2023-08-16T04:10:04.437Z,92.19
2023-08-16T04:12:31.069Z,90.86
2023-08-16T04:14:57.740Z,90.46
2023-08-16T04:17:24.786Z,90.57
2023-08-16T04:19:52.443Z,90.74
2023-08-16T04:22:19.094Z,91.80
2023-08-16T04:24:46.479Z,90.80
2023-08-16T04:27:13.168Z,89.92
2023-08-16T04:29:39.903Z,89.78
2023-08-16T04:32:06.910Z,90.14
2023-08-16T04:34:33.633Z,90.66
2023-08-16T04:37:00.270Z,91.97
2023-08-16T04:39:27.696Z,91.92
2023-08-16T04:41:54.415Z,91.11
2023-08-16T04:44:21.054Z,90.49
2023-08-16T04:46:48.766Z,90.42
2023-08-16T04:49:16.390Z,89.66
2023-08-16T04:51:43.103Z,89.46
2023-08-16T04:54:09.821Z,89.45
2023-08-16T04:56:37.249Z,90.16
2023-08-16T04:59:04.134Z,90.33
2023-08-16T05:01:30.864Z,89.71
2023-08-16T05:03:57.611Z,90.33
2023-08-16T05:06:24.332Z,90.85
2023-08-16T05:08:51.029Z,90.42
2023-08-16T05:11:17.978Z,90.93
2023-08-16T05:13:44.600Z,92.19
2023-08-16T05:16:11.307Z,93.06
2023-08-16T05:18:38.841Z,92.52
2023-08-16T05:21:06.299Z,92.54
2023-08-16T05:23:34.708Z,90.65
2023-08-16T05:26:01.745Z,90.01
2023-08-16T05:28:29.525Z,90.44
2023-08-16T05:30:56.207Z,91.38
2023-08-16T05:33:23.043Z,91.51
2023-08-16T05:35:49.919Z,90.59
2023-08-16T05:38:16.590Z,91.08
2023-08-16T05:40:43.253Z,91.85
2023-08-16T05:43:09.987Z,93.23
2023-08-16T05:45:37.607Z,93.67
2023-08-16T05:48:04.862Z,91.88
2023-08-16T05:50:31.588Z,92.48
2023-08-16T05:52:58.323Z,91.39
2023-08-16T05:55:26.319Z,90.86
2023-08-16T05:57:55.261Z,90.16
2023-08-16T06:03:03.851Z,89.55
2023-08-16T06:05:30.753Z,89.27
2023-08-16T06:07:58.651Z,90.24
2023-08-16T06:10:26.108Z,90.61
2023-08-16T06:12:52.743Z,92.24
2023-08-16T06:15:19.482Z,92.16
2023-08-16T06:17:46.193Z,90.98
2023-08-16T06:20:13.089Z,90.76
2023-08-16T06:22:40.249Z,89.78
2023-08-16T06:25:08.490Z,90.18
2023-08-16T06:27:35.387Z,91.37
2023-08-16T06:30:02.682Z,91.05
2023-08-16T06:32:29.809Z,89.26
2023-08-16T06:34:56.500Z,89.29
2023-08-16T06:37:23.368Z,91.50
2023-08-16T06:39:50.347Z,90.31
2023-08-16T06:42:16.982Z,89.25
2023-08-16T06:44:43.606Z,88.96
2023-08-16T06:47:10.299Z,89.03
2023-08-16T06:49:36.978Z,89.86
2023-08-16T06:52:04.815Z,89.95
2023-08-16T06:54:31.609Z,89.73
2023-08-16T06:56:59.334Z,88.75
2023-08-16T06:59:27.123Z,87.05
2023-08-16T07:01:53.912Z,86.59
2023-08-16T07:04:20.590Z,85.10
2023-08-16T07:06:47.246Z,83.31
2023-08-16T07:09:13.989Z,83.29
2023-08-16T07:11:40.700Z,83.50
2023-08-16T07:14:07.389Z,83.26
2023-08-16T07:16:34.856Z,83.88
2023-08-16T07:19:02.599Z,83.44
2023-08-16T07:21:29.226Z,84.16
2023-08-16T07:23:56.012Z,84.46
2023-08-16T07:26:23.808Z,85.60
2023-08-16T07:28:50.438Z,85.31
2023-08-16T07:31:20.795Z,85.42
2023-08-16T07:33:47.489Z,85.50
2023-08-16T07:36:14.216Z,86.84
2023-08-16T07:38:41.002Z,85.06
2023-08-16T07:41:08.472Z,87.22
2023-08-16T07:43:35.885Z,84.08
2023-08-16T07:46:03.708Z,85.02
2023-08-16T07:48:30.707Z,86.17
2023-08-16T07:50:57.485Z,85.58
2023-08-16T07:53:24.208Z,85.83
2023-08-16T07:55:50.943Z,85.79
2023-08-16T07:58:17.894Z,86.34
2023-08-16T08:00:47.308Z,86.68
2023-08-16T08:03:13.972Z,86.24
2023-08-16T08:05:41.021Z,85.13
2023-08-16T08:08:08.968Z,84.87
2023-08-16T08:10:35.650Z,84.29
2023-08-16T08:13:02.365Z,85.35
2023-08-16T08:15:29.852Z,84.80
2023-08-16T08:17:56.605Z,83.71
2023-08-16T08:20:23.339Z,85.59
2023-08-16T08:22:50.006Z,84.56
2023-08-16T08:25:16.792Z,81.85
2023-08-16T08:27:43.501Z,82.76
2023-08-16T08:30:10.957Z,81.93
2023-08-16T08:32:37.805Z,81.86
2023-08-16T08:35:06.331Z,82.02
2023-08-16T08:37:33.082Z,83.50
2023-08-16T08:39:59.840Z,82.21
2023-08-16T08:42:29.822Z,82.76
2023-08-16T08:44:58.042Z,83.00
2023-08-16T08:47:26.548Z,80.03
2023-08-16T08:49:54.317Z,79.29
2023-08-16T08:52:22.728Z,78.61
2023-08-16T08:54:50.398Z,81.50
2023-08-16T08:57:20.034Z,83.06
2023-08-16T08:59:51.254Z,82.31
2023-08-16T09:02:19.155Z,84.52
2023-08-16T09:04:47.832Z,83.83
2023-08-16T09:07:18.311Z,83.45
2023-08-16T09:09:45.549Z,84.41
2023-08-16T09:12:16.758Z,86.01
2023-08-16T09:14:43.388Z,84.32
2023-08-16T09:17:10.089Z,83.47
2023-08-16T09:19:45.075Z,84.25
2023-08-16T09:22:13.459Z,84.36
2023-08-16T09:24:44.573Z,83.90
2023-08-16T09:27:15.757Z,84.64
2023-08-16T09:29:42.416Z,83.96
2023-08-16T09:32:16.601Z,84.33
2023-08-16T09:37:18.131Z,81.56
2023-08-16T09:39:44.779Z,79.60
2023-08-16T09:42:12.165Z,76.54
2023-08-16T09:44:42.778Z,73.61
2023-08-16T09:47:18.226Z,74.18
2023-08-16T09:49:48.125Z,74.69
2023-08-16T09:52:15.446Z,74.03
2023-08-16T09:54:42.224Z,73.17
2023-08-16T09:59:40.637Z,69.92
2023-08-16T10:02:14.264Z,68.90
2023-08-16T10:07:14.314Z,65.56
2023-08-16T10:09:45.321Z,65.94
2023-08-16T10:12:12.782Z,63.84
2023-08-16T10:14:39.928Z,62.19
2023-08-16T10:17:08.306Z,63.97
2023-08-16T10:19:38.521Z,65.09
2023-08-16T10:22:23.281Z,64.63
2023-08-16T10:25:00.440Z,64.19
2023-08-16T10:27:28.578Z,64.65
2023-08-16T10:32:31.776Z,62.05
2023-08-16T10:35:00.613Z,62.43
2023-08-16T10:37:27.528Z,65.58
2023-08-16T10:42:28.104Z,64.28
2023-08-16T10:44:55.145Z,59.28
2023-08-16T10:47:31.984Z,59.69
2023-08-16T10:50:02.136Z,61.32
2023-08-16T10:52:31.975Z,58.94
2023-08-16T10:55:00.784Z,59.18
2023-08-16T10:57:27.795Z,60.26
2023-08-16T11:00:08.370Z,60.93
2023-08-16T11:02:38.489Z,59.59
2023-08-16T11:05:06.710Z,60.35
2023-08-16T11:07:33.427Z,60.61
2023-08-16T11:10:01.589Z,57.11
2023-08-16T11:12:32.443Z,56.24
2023-08-16T11:14:59.522Z,54.77
2023-08-16T11:17:30.674Z,55.42
2023-08-16T11:19:57.925Z,56.19
2023-08-16T11:22:29.642Z,54.59
2023-08-16T11:24:56.622Z,53.31
2023-08-16T11:27:24.123Z,51.92
2023-08-16T11:29:52.174Z,51.94
2023-08-16T11:32:54.163Z,52.21
2023-08-16T11:35:21.293Z,51.32
2023-08-16T11:37:47.996Z,52.00
2023-08-16T11:40:14.676Z,51.23
2023-08-16T11:42:42.257Z,50.70
2023-08-16T11:45:19.424Z,52.65
2023-08-16T11:47:50.469Z,47.55
2023-08-16T11:50:17.386Z,48.24
2023-08-16T11:52:44.111Z,48.97
2023-08-16T11:55:15.457Z,47.94
2023-08-16T11:57:46.497Z,48.42
2023-08-16T12:00:16.687Z,50.31
2023-08-16T12:02:44.856Z,50.45
2023-08-16T12:05:12.422Z,50.04
2023-08-16T12:07:48.832Z,49.77
2023-08-16T12:10:25.695Z,51.09
2023-08-16T12:12:53.838Z,51.02
2023-08-16T12:15:23.958Z,51.47
2023-08-16T12:17:56.358Z,52.04
2023-08-16T12:20:26.553Z,51.82
2023-08-16T12:22:55.219Z,52.27
2023-08-16T12:25:22.076Z,52.71
2023-08-16T12:27:48.704Z,53.39
2023-08-16T12:30:15.463Z,52.40
2023-08-16T12:32:42.715Z,52.80
2023-08-16T12:35:09.598Z,51.55
2023-08-16T12:37:38.591Z,50.93
2023-08-16T12:40:13.878Z,51.48
2023-08-16T12:42:42.963Z,50.99
2023-08-16T12:45:10.952Z,51.96
2023-08-16T12:47:37.808Z,53.40
2023-08-16T12:50:05.147Z,52.48
2023-08-16T12:52:31.857Z,50.97
2023-08-16T12:54:59.558Z,52.90
2023-08-16T12:57:26.540Z,49.34
2023-08-16T12:59:54.621Z,50.71
2023-08-16T13:02:36.338Z,48.89
2023-08-16T13:05:11.158Z,49.37
2023-08-16T13:10:23.164Z,47.61
2023-08-16T13:18:19.154Z,46.68
2023-08-16T13:23:11.498Z,46.18
2023-08-16T13:25:58.181Z,45.83
2023-08-16T13:28:44.496Z,44.77
2023-08-16T13:31:22.225Z,45.70
2023-08-16T13:36:42.963Z,46.70
2023-08-16T13:39:10.641Z,46.39
2023-08-16T13:44:44.607Z,43.34
2023-08-16T13:46:54.099Z,45.28
2023-08-16T13:49:20.860Z,42.85
2023-08-16T13:51:47.578Z,43.48
2023-08-16T13:54:14.225Z,42.82
2023-08-16T13:56:48.291Z,42.51
2023-08-16T13:59:16.253Z,41.13
2023-08-16T14:01:43.587Z,42.24
2023-08-16T14:04:10.477Z,43.23
2023-08-16T14:06:37.108Z,42.34
2023-08-16T14:09:04.827Z,41.48
2023-08-16T14:11:31.806Z,41.83
2023-08-16T14:13:59.107Z,41.66
2023-08-16T14:16:26.476Z,41.63
2023-08-16T14:18:54.841Z,41.22
2023-08-16T14:21:21.565Z,41.75
2023-08-16T14:23:56.050Z,42.11
2023-08-16T14:26:22.987Z,40.81
2023-08-16T14:28:49.840Z,39.04
2023-08-16T14:31:18.718Z,38.62
2023-08-16T14:33:45.375Z,39.34
2023-08-16T14:36:12.096Z,39.22
2023-08-16T14:38:46.741Z,38.29
2023-08-16T14:41:25.097Z,39.38
2023-08-16T14:43:51.846Z,40.46
2023-08-16T14:46:20.216Z,37.57
2023-08-16T14:48:48.288Z,38.73
2023-08-16T14:51:16.052Z,38.00
2023-08-16T14:53:42.745Z,38.63
2023-08-16T14:56:12.896Z,37.90
2023-08-16T14:58:41.270Z,37.74
2023-08-16T15:01:08.548Z,37.89
2023-08-16T15:03:36.099Z,36.50
2023-08-16T15:06:03.172Z,37.87
2023-08-16T15:08:30.302Z,38.21
2023-08-16T15:11:01.023Z,37.60
2023-08-16T15:13:28.280Z,37.49
2023-08-16T15:15:57.421Z,36.82
2023-08-16T15:18:24.286Z,37.07
2023-08-16T15:20:51.844Z,37.70
2023-08-16T15:23:24.236Z,38.63
2023-08-16T15:25:51.020Z,38.48
2023-08-16T15:28:18.030Z,38.83
2023-08-16T15:30:44.779Z,38.38
2023-08-16T15:33:11.412Z,37.46
2023-08-16T15:35:38.396Z,38.04
2023-08-16T15:38:07.574Z,37.35
2023-08-16T15:40:36.631Z,37.96
2023-08-16T15:43:03.232Z,39.01
2023-08-16T15:45:29.955Z,38.07
2023-08-16T15:47:56.653Z,40.51
2023-08-16T15:50:23.395Z,39.17
2023-08-16T15:52:50.104Z,38.68
2023-08-16T15:55:16.838Z,38.75
2023-08-16T15:57:43.534Z,39.05
2023-08-16T16:00:11.460Z,39.11
2023-08-16T16:02:38.154Z,39.64
2023-08-16T16:05:05.436Z,40.15
2023-08-16T16:07:33.664Z,39.69
2023-08-16T16:10:00.430Z,39.71
2023-08-16T16:12:27.082Z,39.94
2023-08-16T16:14:53.752Z,40.61
2023-08-16T16:17:25.774Z,42.19
2023-08-16T16:19:53.184Z,44.34
2023-08-16T16:22:19.956Z,45.08
2023-08-16T16:24:47.339Z,45.66
2023-08-16T16:27:14.050Z,46.46
2023-08-16T16:29:40.807Z,45.59
2023-08-16T16:32:07.767Z,45.45
2023-08-16T16:34:34.652Z,45.56
2023-08-16T16:37:01.374Z,45.63
2023-08-16T16:39:28.211Z,46.83
2023-08-16T16:41:54.945Z,47.47
2023-08-16T16:44:22.522Z,48.38
2023-08-16T16:46:51.002Z,49.18
2023-08-16T16:49:18.278Z,49.32
2023-08-16T16:51:45.684Z,49.31
2023-08-16T16:54:12.330Z,52.82
2023-08-16T16:56:39.051Z,61.39
2023-08-16T16:59:05.803Z,63.35
2023-08-16T17:01:33.973Z,64.76
2023-08-16T17:04:02.315Z,68.01
2023-08-16T17:06:29.047Z,69.83
2023-08-16T17:08:56.964Z,75.10
2023-08-16T17:11:24.765Z,78.63
2023-08-16T17:13:53.002Z,78.60
2023-08-16T17:16:21.026Z,78.48
2023-08-16T17:18:47.671Z,76.06
2023-08-16T17:21:17.134Z,77.98
2023-08-16T17:23:44.831Z,77.79
2023-08-16T17:26:12.305Z,77.03
2023-08-16T17:28:39.174Z,78.50
2023-08-16T17:31:09.305Z,79.54
2023-08-16T17:33:36.779Z,79.04
2023-08-16T17:36:14.153Z,80.38
2023-08-16T17:38:42.705Z,79.70
2023-08-16T17:41:10.163Z,79.20
2023-08-16T17:43:38.075Z,79.51
2023-08-16T17:46:04.944Z,80.75
2023-08-16T17:48:31.703Z,83.82
2023-08-16T17:50:58.481Z,82.87
2023-08-16T17:53:25.459Z,84.95
2023-08-16T17:55:52.906Z,86.06
2023-08-16T17:58:22.387Z,86.67
2023-08-16T18:00:55.019Z,87.64
2023-08-16T18:03:23.294Z,87.52
2023-08-16T18:05:50.038Z,88.41
2023-08-16T18:08:16.714Z,88.68
2023-08-16T18:10:43.332Z,88.36
2023-08-16T18:13:10.021Z,88.19
2023-08-16T18:15:36.708Z,88.37
2023-08-16T18:18:04.282Z,87.75
2023-08-16T18:20:31.043Z,87.58
2023-08-16T18:22:58.818Z,88.27
2023-08-16T18:25:25.681Z,87.94
2023-08-16T18:27:52.552Z,88.28
2023-08-16T18:30:19.297Z,88.29
2023-08-16T18:32:47.727Z,87.89
2023-08-16T18:35:14.488Z,88.21
2023-08-16T18:37:41.368Z,88.88
2023-08-16T18:40:09.930Z,88.70
2023-08-16T18:42:36.810Z,88.89
2023-08-16T18:45:03.796Z,88.62
2023-08-16T18:47:30.570Z,90.16
2023-08-16T18:49:57.339Z,89.84
2023-08-16T18:52:24.192Z,88.77
2023-08-16T18:54:51.356Z,89.21
2023-08-16T18:57:18.104Z,88.85
2023-08-16T18:59:44.750Z,88.77
2023-08-16T19:02:11.407Z,89.50
2023-08-16T19:04:38.163Z,89.64
2023-08-16T19:07:05.125Z,89.00
2023-08-16T19:09:31.807Z,89.59
2023-08-16T19:11:59.692Z,88.99
2023-08-16T19:14:29.611Z,88.52
2023-08-16T19:16:56.313Z,89.61
2023-08-16T19:19:24.675Z,90.66
2023-08-16T19:21:51.400Z,90.23
2023-08-16T19:24:18.321Z,92.14
2023-08-16T19:26:45.717Z,92.55
2023-08-16T19:29:12.774Z,92.10
2023-08-16T19:31:39.500Z,90.77
2023-08-16T19:34:07.304Z,90.69
2023-08-16T19:36:33.979Z,91.62
2023-08-16T19:39:00.778Z,90.73
2023-08-16T19:41:27.505Z,93.16
2023-08-16T19:43:55.086Z,93.33
2023-08-16T19:46:25.806Z,93.13
2023-08-16T19:48:52.625Z,94.16
2023-08-16T19:51:19.307Z,93.09
2023-08-16T19:53:46.042Z,94.97
2023-08-16T19:56:14.408Z,94.25
2023-08-16T19:58:41.065Z,93.89
2023-08-16T20:01:07.984Z,94.53
2023-08-16T20:03:34.965Z,94.05
2023-08-16T20:06:01.890Z,92.69
2023-08-16T20:08:28.549Z,93.38
2023-08-16T20:10:55.296Z,92.31
2023-08-16T20:13:22.606Z,93.23
2023-08-16T20:15:52.480Z,92.13
2023-08-16T20:18:20.653Z,91.36
2023-08-16T20:20:48.228Z,93.40
2023-08-16T20:23:14.932Z,94.42
2023-08-16T20:25:42.060Z,94.06
2023-08-16T20:28:08.986Z,94.48
2023-08-16T20:30:35.758Z,93.40
2023-08-16T20:33:02.627Z,93.53
2023-08-16T20:35:29.312Z,92.58
2023-08-16T20:37:56.173Z,92.03
2023-08-16T20:40:23.100Z,91.86
2023-08-16T20:42:49.851Z,93.48
2023-08-16T20:45:17.625Z,92.71
2023-08-16T20:47:44.642Z,92.34
2023-08-16T20:50:12.194Z,93.32
2023-08-16T20:52:42.961Z,94.10
2023-08-16T20:55:10.724Z,92.91
2023-08-16T20:57:37.554Z,92.90
2023-08-16T21:00:04.685Z,92.42
2023-08-16T21:02:31.637Z,92.35
2023-08-16T21:04:58.513Z,92.48
2023-08-16T21:07:25.348Z,92.27
2023-08-16T21:09:53.151Z,92.30
2023-08-16T21:12:20.504Z,92.46
2023-08-16T21:14:48.387Z,92.88
2023-08-16T21:17:15.783Z,92.36
2023-08-16T21:19:42.914Z,91.65
2023-08-16T21:22:09.652Z,91.44
2023-08-16T21:24:36.350Z,91.22
2023-08-16T21:27:04.237Z,91.51
2023-08-16T21:29:31.066Z,92.03
2023-08-16T21:31:57.928Z,93.29
2023-08-16T21:34:24.583Z,93.19
2023-08-16T21:36:51.241Z,94.42
2023-08-16T21:39:18.061Z,94.11
2023-08-16T21:41:44.935Z,94.04
2023-08-16T21:44:11.698Z,93.63
2023-08-16T21:46:38.490Z,93.38
2023-08-16T21:49:06.203Z,92.55
2023-08-16T21:51:33.037Z,91.94
2023-08-16T21:53:59.703Z,92.41
2023-08-16T21:56:26.513Z,91.78
2023-08-16T21:58:53.244Z,92.51
2023-08-16T22:01:20.017Z,91.34
2023-08-16T22:03:47.666Z,91.30
2023-08-16T22:06:14.841Z,91.75
2023-08-16T22:08:41.515Z,91.56
2023-08-16T22:11:08.231Z,92.04
2023-08-16T22:13:36.687Z,92.61
2023-08-16T22:16:04.104Z,92.40
2023-08-16T22:18:30.907Z,92.92
2023-08-16T22:21:03.445Z,93.31
2023-08-16T22:23:31.974Z,93.62
2023-08-16T22:25:58.718Z,93.79
2023-08-16T22:28:25.742Z,93.12
2023-08-16T22:30:52.530Z,93.35
2023-08-16T22:33:19.239Z,93.61
2023-08-16T22:35:45.867Z,93.31
2023-08-16T22:38:16.492Z,92.94
2023-08-16T22:40:43.606Z,92.57
2023-08-16T22:43:10.358Z,92.10
2023-08-16T22:45:37.122Z,91.90
2023-08-16T22:48:04.229Z,92.05
2023-08-16T22:50:31.540Z,93.02
2023-08-16T22:52:58.618Z,92.42
2023-08-16T22:55:25.362Z,91.32
2023-08-16T22:57:52.167Z,91.12
2023-08-16T23:00:18.970Z,90.13
2023-08-16T23:02:45.842Z,90.31
2023-08-16T23:05:12.764Z,91.04
2023-08-16T23:07:39.411Z,91.29
2023-08-16T23:10:06.460Z,91.82
2023-08-16T23:12:33.146Z,92.08
2023-08-16T23:15:00.096Z,92.42
2023-08-16T23:17:27.021Z,92.65
2023-08-16T23:19:54.223Z,92.34
2023-08-16T23:22:20.968Z,92.54
2023-08-16T23:24:47.655Z,92.42
2023-08-16T23:27:14.315Z,92.06
2023-08-16T23:29:41.041Z,92.44
2023-08-16T23:32:07.820Z,93.20
2023-08-16T23:34:34.596Z,93.00
2023-08-16T23:37:01.273Z,93.78
2023-08-16T23:39:27.990Z,93.21
2023-08-16T23:41:57.954Z,93.42
2023-08-16T23:44:28.102Z,93.62
2023-08-16T23:46:54.866Z,93.27
2023-08-16T23:49:21.884Z,93.00
2023-08-16T23:51:49.214Z,93.07
2023-08-16T23:54:15.925Z,93.55
2023-08-16T23:56:42.640Z,94.47
2023-08-16T23:59:09.370Z,94.19
